Time;durP1;ratioP1;P1;durP2;ratioP2;P2;SDS_P1;SDS_P2;PMS_P1;PMS_P2;Temp;Humidity;BMP_temperature;BMP_pressure;BME280_temperature;BME280_humidity;BME280_pressure;Samples;Min_cycle;Max_cycle;Signal;HPM_P1;HPM_P2
2023/06/11 00:01:00;;;;;;;5.57;3.30;;;;;;;15.81;100.00;92577.94;5068186;28;20136;-79
2023/06/11 00:03:27;;;;;;;10.43;4.03;;;;;;;15.91;100.00;92597.91;5074551;28;20040;-79
2023/06/11 00:05:54;;;;;;;4.30;3.28;;;;;;;15.88;100.00;92594.00;5071846;28;20102;-78
2023/06/11 00:08:21;;;;;;;5.00;3.40;;;;;;;15.85;100.00;92591.94;5088762;28;20915;-79
2023/06/11 00:10:47;;;;;;;5.07;3.10;;;;;;;15.80;100.00;92585.97;5066917;28;20044;-78
2023/06/11 00:13:14;;;;;;;4.55;3.13;;;;;;;15.83;100.00;92591.41;5067185;28;20049;-80
2023/06/11 00:15:42;;;;;;;4.15;2.60;;;;;;;15.74;100.00;92577.44;5065051;28;20040;-82
2023/06/11 00:18:10;;;;;;;5.80;3.60;;;;;;;15.58;100.00;92548.13;5079599;28;20928;-81
2023/06/11 00:20:41;;;;;;;3.97;2.90;;;;;;;15.79;100.00;92579.25;5084855;28;20487;-79
2023/06/11 00:23:08;;;;;;;5.75;3.60;;;;;;;15.76;100.00;92575.34;5086021;28;20559;-80
2023/06/11 00:25:35;;;;;;;5.45;3.22;;;;;;;15.74;100.00;92575.59;5070648;28;20101;-80
2023/06/11 00:28:02;;;;;;;4.85;3.08;;;;;;;15.70;100.00;92577.16;5084157;28;20123;-80
2023/06/11 00:30:30;;;;;;;5.30;3.17;;;;;;;15.67;100.00;92584.66;5087699;28;20101;-78
2023/06/11 00:32:59;;;;;;;7.72;3.13;;;;;;;15.52;100.00;92569.88;5080165;28;20427;-78
2023/06/11 00:35:26;;;;;;;4.75;3.00;;;;;;;15.54;100.00;92585.91;5059389;28;20052;-79
2023/06/11 00:37:55;;;;;;;4.68;2.90;;;;;;;15.47;100.00;92583.59;5067303;28;20089;-80
2023/06/11 00:40:21;;;;;;;4.85;3.22;;;;;;;15.40;100.00;92589.00;5067975;28;20057;-79
2023/06/11 00:42:50;;;;;;;5.10;3.70;;;;;;;15.36;100.00;92591.31;5073883;28;20040;-79
2023/06/11 00:45:18;;;;;;;6.43;2.72;;;;;;;15.30;100.00;92581.19;5087609;28;20055;-79
2023/06/11 00:47:44;;;;;;;6.85;3.60;;;;;;;15.29;100.00;92577.06;5071512;28;20579;-80
2023/06/11 00:50:15;;;;;;;4.28;2.70;;;;;;;15.27;100.00;92587.66;5059631;28;20468;-80
2023/06/11 00:52:42;;;;;;;5.10;3.00;;;;;;;15.25;100.00;92584.56;5063447;28;20040;-79
2023/06/11 00:55:11;;;;;;;5.38;2.78;;;;;;;15.21;100.00;92592.06;5060585;28;20053;-79
2023/06/11 00:57:40;;;;;;;4.30;2.97;;;;;;;15.14;100.00;92582.97;5072417;28;20040;-79
2023/06/11 01:00:11;;;;;;;4.65;3.40;;;;;;;15.12;100.00;92595.34;5060359;28;20049;-79
2023/06/11 01:02:44;;;;;;;4.38;2.83;;;;;;;15.06;100.00;92602.34;5079306;28;20044;-79
2023/06/11 01:05:17;;;;;;;5.57;3.25;;;;;;;14.93;100.00;92580.28;5070305;28;20065;-79
2023/06/11 01:07:50;;;;;;;4.50;3.00;;;;;;;15.01;100.00;92590.16;5059081;28;20505;-78
2023/06/11 01:10:17;;;;;;;4.35;3.10;;;;;;;14.98;100.00;92582.91;5071705;28;20413;-78
2023/06/11 01:12:44;;;;;;;4.97;3.00;;;;;;;14.99;100.00;92588.88;5067447;28;20094;-80
2023/06/11 01:15:13;;;;;;;6.55;3.60;;;;;;;14.91;100.00;92580.53;5056797;28;20433;-80
2023/06/11 01:17:45;;;;;;;4.85;3.00;;;;;;;14.96;100.00;92587.56;5067271;28;20047;-79
2023/06/11 01:20:17;;;;;;;4.82;2.88;;;;;;;14.72;100.00;92553.53;5080306;28;20052;-79
2023/06/11 01:23:11;;;;;;;5.38;3.20;;;;;;;14.83;100.00;92578.44;5064656;28;20379;-79
2023/06/11 01:25:45;;;;;;;6.15;3.88;;;;;;;14.89;100.00;92587.78;5066718;28;20101;-79
2023/06/11 01:28:16;;;;;;;5.18;2.95;;;;;;;14.85;100.00;92589.31;5084683;28;20052;-79
2023/06/11 01:30:49;;;;;;;4.43;2.95;;;;;;;14.82;100.00;92584.66;5077896;28;20139;-79
2023/06/11 01:33:18;;;;;;;4.85;3.17;;;;;;;14.82;100.00;92588.00;5076492;28;20047;-79
2023/06/11 01:35:45;;;;;;;5.30;3.13;;;;;;;14.81;100.00;92583.84;5086551;28;20044;-79
2023/06/11 01:38:13;;;;;;;4.78;2.85;;;;;;;14.77;100.00;92569.88;5078504;28;20041;-79
2023/06/11 01:40:40;;;;;;;5.82;3.00;;;;;;;14.81;100.00;92583.84;5056342;28;20052;-79
2023/06/11 01:43:07;;;;;;;5.15;3.17;;;;;;;14.80;100.00;92587.47;5065911;28;20048;-79
2023/06/11 01:45:36;;;;;;;5.50;3.20;;;;;;;14.79;100.00;92580.75;5061156;28;20090;-79
2023/06/11 01:48:03;;;;;;;5.13;3.55;;;;;;;14.77;100.00;92569.09;5078212;28;20083;-79
2023/06/11 01:50:30;;;;;;;4.72;3.30;;;;;;;14.87;100.00;92579.50;5070886;28;20089;-79
2023/06/11 01:52:57;;;;;;;6.30;3.50;;;;;;;14.89;100.00;92582.59;5073288;28;20052;-79
2023/06/11 01:55:24;;;;;;;5.30;3.38;;;;;;;14.89;100.00;92585.19;5070034;28;20040;-79
2023/06/11 01:57:51;;;;;;;4.78;3.10;;;;;;;14.87;100.00;92587.25;5082168;28;20052;-79
2023/06/11 02:00:18;;;;;;;4.07;2.78;;;;;;;14.74;100.00;92572.16;5055133;28;20103;-79
2023/06/11 02:02:48;;;;;;;4.68;3.20;;;;;;;14.82;100.00;92590.56;5070497;28;20455;-78
2023/06/11 02:05:15;;;;;;;5.03;3.15;;;;;;;14.79;100.00;92588.50;5082307;28;20044;-78
2023/06/11 02:07:42;;;;;;;4.60;2.70;;;;;;;14.74;100.00;92592.84;5083731;28;20051;-77
2023/06/11 02:10:09;;;;;;;4.35;2.72;;;;;;;14.72;100.00;92589.72;5073773;28;20060;-78
2023/06/11 02:12:36;;;;;;;5.28;3.00;;;;;;;14.63;100.00;92590.19;5063708;28;20763;-78
2023/06/11 02:15:02;;;;;;;4.10;3.05;;;;;;;14.66;100.00;92601.84;5072644;28;20051;-77
2023/06/11 02:17:29;;;;;;;4.13;3.05;;;;;;;14.66;100.00;92599.25;5061056;28;20048;-77
2023/06/11 02:19:57;;;;;;;4.55;2.70;;;;;;;14.51;100.00;92589.59;5067111;28;20053;-78
2023/06/11 02:22:24;;;;;;;4.47;2.90;;;;;;;14.56;100.00;92600.75;5064000;28;20832;-78
2023/06/11 02:24:51;;;;;;;6.47;3.17;;;;;;;14.48;100.00;92587.53;5060681;28;20907;-78
2023/06/11 02:27:18;;;;;;;5.15;3.13;;;;;;;14.57;100.00;92593.78;5066181;28;20044;-78
2023/06/11 02:29:44;;;;;;;4.65;3.08;;;;;;;14.61;100.00;92596.63;5069060;28;20098;-78
2023/06/11 02:32:11;;;;;;;4.00;2.65;;;;;;;14.65;100.00;92587.34;5074186;28;20569;-78
2023/06/11 02:34:38;;;;;;;5.13;3.60;;;;;;;14.63;100.00;92589.44;5090141;28;20439;-79
2023/06/11 02:37:06;;;;;;;5.32;3.08;;;;;;;14.61;100.00;92589.66;5073813;28;20090;-79
2023/06/11 02:39:33;;;;;;;6.30;3.40;;;;;;;14.59;100.00;92588.34;5076167;28;20048;-79
2023/06/11 02:42:00;;;;;;;5.18;3.25;;;;;;;14.60;100.00;92597.66;5070756;28;20802;-79
2023/06/11 02:44:27;;;;;;;4.47;2.78;;;;;;;14.60;100.00;92595.09;5070861;28;20153;-79
2023/06/11 02:46:53;;;;;;;6.03;3.75;;;;;;;14.55;100.00;92595.84;5076256;28;20056;-79
2023/06/11 02:49:21;;;;;;;6.30;3.85;;;;;;;14.56;100.00;92592.22;5067326;28;20044;-79
2023/06/11 02:51:48;;;;;;;5.07;3.03;;;;;;;14.53;100.00;92598.66;5076349;28;20049;-79
2023/06/11 02:54:16;;;;;;;5.18;3.47;;;;;;;14.50;100.00;92596.59;5069752;28;20071;-79
2023/06/11 02:56:43;;;;;;;4.38;3.30;;;;;;;14.49;100.00;92589.84;5063593;28;20058;-79
2023/06/11 02:59:09;;;;;;;4.95;3.10;;;;;;;14.50;100.00;92591.44;5080655;28;20628;-80
2023/06/11 03:01:38;;;;;;;5.50;3.17;;;;;;;14.49;100.00;92597.59;5062780;28;21445;-80
2023/06/11 03:04:05;;;;;;;5.57;3.58;;;;;;;14.51;100.00;92597.34;5089314;28;20067;-80
2023/06/11 03:06:32;;;;;;;5.18;3.15;;;;;;;14.52;100.00;92597.13;5080012;28;20106;-80
2023/06/11 03:08:59;;;;;;;5.35;3.65;;;;;;;14.52;100.00;92593.75;5078380;28;20139;-80
2023/06/11 03:11:27;;;;;;;4.63;3.28;;;;;;;14.51;100.00;92595.56;5089621;28;20039;-79
2023/06/11 03:13:54;;;;;;;5.15;3.58;;;;;;;14.53;100.00;92605.63;5066807;28;20567;-80
2023/06/11 03:16:20;;;;;;;5.13;3.55;;;;;;;14.41;100.00;92590.31;5065304;28;20085;-79
2023/06/11 03:18:47;;;;;;;5.80;3.63;;;;;;;14.50;100.00;92600.97;5075507;28;20047;-79
2023/06/11 03:21:14;;;;;;;6.45;3.88;;;;;;;14.36;100.00;92588.50;5080470;28;20438;-79
2023/06/11 03:23:41;;;;;;;6.10;3.53;;;;;;;14.39;100.00;92595.72;5070392;28;20056;-79
2023/06/11 03:26:08;;;;;;;10.10;5.03;;;;;;;14.48;100.00;92603.78;5073909;28;20056;-78
2023/06/11 03:28:36;;;;;;;7.63;4.22;;;;;;;14.50;100.00;92613.91;5077938;28;20496;-79
2023/06/11 03:31:03;;;;;;;6.60;3.80;;;;;;;14.49;100.00;92612.34;5081041;28;20063;-78
2023/06/11 03:33:29;;;;;;;6.03;3.35;;;;;;;14.41;100.00;92611.75;5058064;28;20051;-79
2023/06/11 03:35:56;;;;;;;6.18;4.38;;;;;;;14.43;100.00;92606.34;5079690;28;20053;-79
2023/06/11 03:38:23;;;;;;;5.97;3.47;;;;;;;14.49;100.00;92615.69;5070182;28;20048;-78
2023/06/11 03:40:50;;;;;;;5.72;3.30;;;;;;;14.28;100.00;92588.94;5075666;28;20056;-79
2023/06/11 03:43:16;;;;;;;6.95;3.83;;;;;;;14.50;100.00;92625.03;5078715;28;20090;-79
2023/06/11 03:45:44;;;;;;;5.13;3.33;;;;;;;14.48;100.00;92616.72;5084814;28;21222;-80
2023/06/11 03:48:11;;;;;;;4.55;3.30;;;;;;;14.56;100.00;92618.84;5073796;28;20100;-79
2023/06/11 03:50:38;;;;;;;5.57;3.80;;;;;;;14.60;100.00;92621.72;5063432;28;20048;-79
2023/06/11 03:53:05;;;;;;;6.00;4.28;;;;;;;14.63;100.00;92626.38;5067708;28;20098;-79
2023/06/11 03:55:31;;;;;;;5.72;3.72;;;;;;;14.66;100.00;92625.09;5061086;28;20454;-79
2023/06/11 03:57:58;;;;;;;7.43;4.70;;;;;;;14.73;100.00;92627.47;5067181;28;20052;-79
2023/06/11 04:00:26;;;;;;;5.68;3.72;;;;;;;14.78;100.00;92623.16;5072980;28;20051;-79
2023/06/11 04:02:54;;;;;;;5.95;3.67;;;;;;;14.82;100.00;92619.03;5070173;28;20048;-79
2023/06/11 04:05:21;;;;;;;6.40;4.25;;;;;;;14.87;100.00;92617.50;5059672;28;20036;-79
2023/06/11 04:07:48;;;;;;;6.00;3.70;;;;;;;14.93;100.00;92622.44;5062249;28;20049;-79
2023/06/11 04:10:15;;;;;;;6.38;4.13;;;;;;;14.96;100.00;92616.75;5060971;28;20048;-78
2023/06/11 04:12:41;;;;;;;6.63;4.13;;;;;;;15.00;100.00;92618.84;5059720;28;20102;-78
2023/06/11 04:15:09;;;;;;;5.45;3.70;;;;;;;15.03;100.00;92620.94;5066667;28;20502;-78
2023/06/11 04:17:35;;;;;;;5.07;3.50;;;;;;;15.12;100.00;92626.41;5062765;28;20049;-79
2023/06/11 04:20:05;;;;;;;5.82;3.45;;;;;;;15.10;100.00;92619.69;5086488;28;20048;-78
2023/06/11 04:22:32;;;;;;;7.10;3.78;;;;;;;15.23;100.00;92622.84;5064668;28;20049;-77
2023/06/11 04:24:58;;;;;;;5.82;3.80;;;;;;;15.22;100.00;92603.16;5060143;28;20562;-77
2023/06/11 04:27:25;;;;;;;6.22;3.65;;;;;;;15.36;100.00;92613.81;5069839;28;20048;-78
2023/06/11 04:29:56;;;;;;;4.88;3.17;;;;;;;15.41;100.00;92616.44;5072382;28;20056;-79
2023/06/11 04:32:26;;;;;;;9.32;4.38;;;;;;;15.46;100.00;92607.91;5062773;28;20052;-78
2023/06/11 04:34:56;;;;;;;6.13;4.07;;;;;;;15.52;100.00;92619.84;5071795;28;20056;-78
2023/06/11 04:37:25;;;;;;;5.72;3.60;;;;;;;15.59;100.00;92610.00;5062733;28;20045;-78
2023/06/11 04:39:52;;;;;;;6.85;4.18;;;;;;;15.63;100.00;92620.63;5078296;28;20056;-80
2023/06/11 04:42:19;;;;;;;5.85;3.83;;;;;;;15.73;100.00;92615.47;5065609;28;20089;-81
2023/06/11 04:44:47;;;;;;;7.50;3.88;;;;;;;15.81;100.00;92613.41;5069330;28;20094;-81
2023/06/11 04:47:14;;;;;;;5.90;4.03;;;;;;;15.91;100.00;92603.06;5064084;28;20079;-82
2023/06/11 04:49:44;;;;;;;5.80;3.75;;;;;;;15.99;100.00;92609.59;5074592;28;20044;-80
2023/06/11 04:52:11;;;;;;;5.95;4.05;;;;;;;16.05;100.00;92607.78;5086438;28;20040;-80
2023/06/11 04:54:41;;;;;;;6.63;3.80;;;;;;;16.15;100.00;92613.75;5066903;28;20063;-80
2023/06/11 04:57:08;;;;;;;7.18;4.47;;;;;;;16.10;100.00;92587.06;5075610;28;20041;-80
2023/06/11 04:59:35;;;;;;;7.70;4.57;;;;;;;16.36;100.00;92605.19;5073992;28;20048;-80
2023/06/11 05:02:02;;;;;;;10.73;4.47;;;;;;;16.36;100.00;92602.59;5063040;28;20134;-80
2023/06/11 05:04:29;;;;;;;8.73;4.93;;;;;;;16.53;100.00;92615.31;5079911;28;20052;-80
2023/06/11 05:06:57;;;;;;;7.60;4.30;;;;;;;16.50;100.00;92601.03;5071284;28;20109;-80
2023/06/11 05:09:24;;;;;;;6.47;4.40;;;;;;;16.67;100.00;92615.53;5072249;28;20127;-80
2023/06/11 05:11:52;;;;;;;6.65;3.92;;;;;;;16.67;100.00;92608.53;5062349;28;20048;-81
2023/06/11 05:14:19;;;;;;;8.63;5.10;;;;;;;16.80;100.00;92606.44;5071415;28;20098;-81
2023/06/11 05:16:46;;;;;;;7.68;4.47;;;;;;;16.93;100.00;92611.06;5074624;28;20079;-80
2023/06/11 05:19:13;;;;;;;7.55;4.80;;;;;;;17.01;100.00;92611.56;5084628;28;20420;-80
2023/06/11 05:21:40;;;;;;;7.13;4.38;;;;;;;17.08;100.00;92610.28;5062262;28;20049;-80
2023/06/11 05:24:07;;;;;;;13.73;5.68;;;;;;;17.19;100.00;92611.03;5063832;28;20068;-80
2023/06/11 05:26:35;;;;;;;7.80;4.32;;;;;;;17.30;100.00;92616.94;5065264;28;20063;-80
2023/06/11 05:29:04;;;;;;;9.07;3.97;;;;;;;17.44;100.00;92627.53;5076430;28;20060;-80
2023/06/11 05:31:35;;;;;;;9.60;5.35;;;;;;;17.54;100.00;92618.91;5064078;28;20048;-80
2023/06/11 05:34:02;;;;;;;10.93;5.38;;;;;;;17.52;100.00;92607.25;5075294;28;20048;-80
2023/06/11 05:36:29;;;;;;;7.38;4.20;;;;;;;17.80;100.00;92620.59;5078019;28;20526;-80
2023/06/11 05:38:56;;;;;;;8.27;5.05;;;;;;;17.94;100.00;92620.78;5086552;28;20080;-80
2023/06/11 05:41:23;;;;;;;10.13;5.13;;;;;;;18.08;100.00;92626.94;5076761;28;20048;-79
2023/06/11 05:43:49;;;;;;;7.80;4.65;;;;;;;18.16;100.00;92621.16;5075197;28;20048;-82
2023/06/11 05:46:23;;;;;;;8.57;4.10;;;;;;;18.23;100.00;92617.50;5083347;28;20068;-80
2023/06/11 05:48:50;;;;;;;10.02;4.95;;;;;;;18.45;100.00;92634.47;5075083;28;20098;-80
2023/06/11 05:51:17;;;;;;;10.93;4.45;;;;;;;18.44;100.00;92610.31;5091018;28;20097;-80
2023/06/11 05:53:46;;;;;;;7.00;4.70;;;;;;;18.64;100.00;92630.16;5085952;28;20104;-81
2023/06/11 05:56:13;;;;;;;7.85;4.05;;;;;;;18.76;100.00;92631.63;5060441;28;20052;-81
2023/06/11 05:58:39;;;;;;;9.10;4.78;;;;;;;18.88;100.00;92637.22;5074617;28;20044;-82
2023/06/11 06:01:08;;;;;;;11.95;5.63;;;;;;;18.95;100.00;92626.50;5067522;28;20071;-81
2023/06/11 06:03:37;;;;;;;6.28;3.80;;;;;;;19.08;100.00;92630.28;5075289;28;20051;-81
2023/06/11 06:06:04;;;;;;;6.60;4.10;;;;;;;19.13;100.00;92632.84;5081702;28;20098;-81
2023/06/11 06:08:32;;;;;;;8.05;4.20;;;;;;;19.25;100.00;92632.44;5071618;28;20048;-80
2023/06/11 06:10:58;;;;;;;5.07;3.45;;;;;;;19.23;100.00;92624.94;5083920;28;20466;-81
2023/06/11 06:13:26;;;;;;;7.43;3.88;;;;;;;19.10;100.00;92615.16;5060293;28;20460;-81
2023/06/11 06:15:53;;;;;;;7.07;4.10;;;;;;;18.63;100.00;92537.56;5068771;28;20496;-82
2023/06/11 06:18:20;;;;;;;8.68;4.57;;;;;;;19.33;100.00;92626.63;5083792;28;20044;-80
2023/06/11 06:20:48;;;;;;;7.63;4.47;;;;;;;19.43;100.00;92623.13;5090246;28;20560;-81
2023/06/11 06:23:15;;;;;;;7.68;4.13;;;;;;;19.54;100.00;92644.63;5090172;28;20089;-80
2023/06/11 06:25:42;;;;;;;6.72;3.20;;;;;;;19.62;100.00;92645.81;5070864;28;20484;-80
2023/06/11 06:28:09;;;;;;;5.93;3.58;;;;;;;19.67;100.00;92645.00;5085040;28;20051;-80
2023/06/11 06:30:38;;;;;;;6.65;3.55;;;;;;;19.80;100.00;92633.88;5075632;28;20095;-80
2023/06/11 06:33:05;;;;;;;6.10;3.60;;;;;;;19.76;100.00;92605.00;5067374;28;20493;-80
2023/06/11 06:35:32;;;;;;;6.68;3.80;;;;;;;20.07;100.00;92631.69;5082795;28;20052;-80
2023/06/11 06:38:00;;;;;;;8.48;4.22;;;;;;;20.19;100.00;92636.50;5080687;28;20131;-80
2023/06/11 06:40:27;;;;;;;9.65;4.88;;;;;;;20.33;100.00;92633.94;5090060;28;20051;-80
2023/06/11 06:42:54;;;;;;;7.88;3.80;;;;;;;20.41;100.00;92631.44;5082968;28;20048;-80
2023/06/11 06:45:21;;;;;;;7.10;3.47;;;;;;;20.56;100.00;92643.47;5065669;28;20166;-81
2023/06/11 06:47:47;;;;;;;6.95;3.47;;;;;;;20.64;100.00;92633.47;5053122;28;20048;-81
2023/06/11 06:50:14;;;;;;;7.32;3.85;;;;;;;20.78;100.00;92636.84;5072314;28;20094;-80
2023/06/11 06:52:41;;;;;;;6.70;3.60;;;;;;;20.85;100.00;92630.47;5079776;28;20048;-81
2023/06/11 06:55:10;;;;;;;5.90;3.42;;;;;;;20.95;100.00;92636.34;5061330;28;20489;-80
2023/06/11 06:57:36;;;;;;;8.95;4.40;;;;;;;21.03;100.00;92644.56;5085605;28;20101;-80
2023/06/11 07:00:05;;;;;;;8.25;4.13;;;;;;;21.05;100.00;92642.44;5078908;28;20052;-80
2023/06/11 07:02:32;;;;;;;8.45;3.67;;;;;;;21.05;100.00;92629.38;5082325;28;20074;-80
2023/06/11 07:04:59;;;;;;;7.63;3.45;;;;;;;21.07;100.00;92627.25;5089702;28;20386;-81
2023/06/11 07:07:25;;;;;;;6.90;3.60;;;;;;;21.24;100.00;92637.13;5087174;28;20119;-80
2023/06/11 07:09:52;;;;;;;6.55;3.72;;;;;;;21.35;100.00;92633.25;5066655;28;20044;-80
2023/06/11 07:12:21;;;;;;;6.07;3.33;;;;;;;21.38;100.00;92633.75;5082305;28;20097;-80
2023/06/11 07:14:48;;;;;;;6.15;3.38;;;;;;;21.44;100.00;92629.97;5068564;28;20080;-80
2023/06/11 07:17:18;;;;;;;7.30;3.42;;;;;;;21.47;100.00;92624.94;5079482;28;20052;-80
2023/06/11 07:19:45;;;;;;;7.60;3.65;;;;;;;21.61;100.00;92624.91;5080158;28;20055;-80
2023/06/11 07:22:14;;;;;;;5.78;3.67;;;;;;;21.72;100.00;92635.94;5074963;28;20052;-80
2023/06/11 07:24:45;;;;;;;7.93;3.67;;;;;;;21.80;100.00;92633.72;5089200;28;20109;-81
2023/06/11 07:27:14;;;;;;;6.22;3.40;;;;;;;21.86;100.00;92635.91;5069793;28;20043;-81
2023/06/11 07:29:43;;;;;;;8.05;4.30;;;;;;;21.90;100.00;92630.88;5081167;28;20507;-80
2023/06/11 07:32:10;;;;;;;8.80;4.35;;;;;;;21.93;100.00;92637.38;5070545;28;20567;-80
2023/06/11 07:34:36;;;;;;;6.35;3.30;;;;;;;22.05;100.00;92635.00;5081900;28;20048;-80
2023/06/11 07:37:04;;;;;;;7.30;3.67;;;;;;;22.03;100.00;92622.22;5067734;28;20099;-81
2023/06/11 07:39:33;;;;;;;8.90;4.15;;;;;;;22.11;100.00;92619.97;5078485;28;20532;-81
2023/06/11 07:42:00;;;;;;;7.43;3.97;;;;;;;22.27;100.00;92625.63;5088490;28;20056;-81
2023/06/11 07:44:27;;;;;;;7.38;4.15;;;;;;;22.33;100.00;92628.88;5072677;28;20444;-80
2023/06/11 07:46:56;;;;;;;9.35;4.32;;;;;;;22.45;100.00;92623.88;5064262;28;20049;-80
2023/06/11 07:49:23;;;;;;;9.40;4.45;;;;;;;22.62;100.00;92625.09;5062889;28;20052;-80
2023/06/11 07:51:50;;;;;;;7.07;3.88;;;;;;;22.67;98.40;92614.50;5084274;28;20443;-80
2023/06/11 07:54:17;;;;;;;11.77;5.10;;;;;;;22.80;97.67;92618.91;5088778;28;20051;-80
2023/06/11 07:56:46;;;;;;;8.98;4.47;;;;;;;22.94;96.73;92621.44;5065371;28;20044;-80
2023/06/11 07:59:13;;;;;;;7.55;3.30;;;;;;;23.09;95.26;92625.47;5079733;28;20050;-80
2023/06/11 08:01:40;;;;;;;6.82;4.00;;;;;;;23.31;93.78;92620.47;5073177;28;20483;-80
2023/06/11 08:04:08;;;;;;;5.40;3.38;;;;;;;23.62;94.07;92627.50;5076841;28;20081;-80
2023/06/11 08:06:35;;;;;;;7.07;3.40;;;;;;;23.84;91.42;92624.00;5088111;28;20553;-80
2023/06/11 08:09:02;;;;;;;11.60;4.68;;;;;;;24.00;90.90;92624.31;5067669;28;20421;-81
2023/06/11 08:11:29;;;;;;;7.95;3.47;;;;;;;24.13;89.66;92622.66;5076763;28;20044;-80
2023/06/11 08:13:58;;;;;;;10.65;4.15;;;;;;;24.35;89.03;92620.16;5088222;28;20043;-80
2023/06/11 08:16:27;;;;;;;10.18;4.00;;;;;;;24.51;84.38;92621.22;5088398;28;20075;-80
2023/06/11 08:18:55;;;;;;;10.38;4.65;;;;;;;24.76;85.80;92618.84;5075152;28;20049;-81
2023/06/11 08:21:23;;;;;;;8.10;3.90;;;;;;;25.13;84.26;92623.69;5079002;28;20486;-80
2023/06/11 08:23:51;;;;;;;9.68;4.43;;;;;;;25.49;83.40;92614.56;5064827;28;20393;-80
2023/06/11 08:26:19;;;;;;;7.55;3.85;;;;;;;25.57;78.14;92615.66;5079705;28;20055;-80
2023/06/11 08:28:46;;;;;;;7.28;3.80;;;;;;;25.97;77.60;92616.31;5064611;28;20045;-80
2023/06/11 08:31:13;;;;;;;8.73;4.68;;;;;;;26.28;75.70;92613.31;5063959;28;20056;-80
2023/06/11 08:33:40;;;;;;;8.13;3.30;;;;;;;26.55;77.00;92610.41;5079610;28;20164;-81
2023/06/11 08:36:07;;;;;;;10.05;4.82;;;;;;;26.81;76.74;92607.50;5087746;28;20055;-81
2023/06/11 08:38:35;;;;;;;7.40;3.90;;;;;;;26.83;71.80;92612.47;5087612;28;20044;-81
2023/06/11 08:41:02;;;;;;;5.53;3.15;;;;;;;27.06;73.23;92618.13;5069770;28;21033;-81
2023/06/11 08:43:29;;;;;;;4.53;2.70;;;;;;;25.48;68.55;92617.50;5086215;28;20617;-80
2023/06/11 08:45:55;;;;;;;5.47;3.10;;;;;;;25.63;69.22;92613.59;5081424;28;20052;-80
2023/06/11 08:48:24;;;;;;;5.20;2.90;;;;;;;25.48;71.16;92630.66;5078655;28;20093;-80
2023/06/11 08:50:52;;;;;;;3.85;2.17;;;;;;;24.94;71.16;92624.84;5087686;28;20044;-81
2023/06/11 08:53:20;;;;;;;4.75;2.40;;;;;;;25.03;72.74;92624.81;5070859;28;20450;-81
2023/06/11 08:55:49;;;;;;;4.07;2.33;;;;;;;24.40;75.74;92615.53;5075396;28;20069;-81
2023/06/11 08:58:16;;;;;;;4.05;2.05;;;;;;;24.83;73.24;92621.03;5088010;28;20084;-81
2023/06/11 09:00:43;;;;;;;3.83;2.40;;;;;;;24.89;69.24;92619.78;5082755;28;20113;-81
2023/06/11 09:03:10;;;;;;;4.07;2.55;;;;;;;25.32;70.76;92622.56;5069201;28;20052;-80
2023/06/11 09:05:38;;;;;;;4.15;2.10;;;;;;;25.37;67.04;92624.22;5086433;28;20040;-80
2023/06/11 09:08:07;;;;;;;3.80;2.25;;;;;;;25.42;70.63;92613.53;5084311;28;20048;-80
2023/06/11 09:10:34;;;;;;;3.45;2.17;;;;;;;25.69;70.05;92614.94;5062206;28;20136;-80
2023/06/11 09:13:02;;;;;;;4.03;2.85;;;;;;;25.45;69.01;92616.28;5060829;28;20049;-81
2023/06/11 09:15:29;;;;;;;3.95;2.40;;;;;;;25.88;69.12;92616.38;5064421;28;20105;-81
2023/06/11 09:17:56;;;;;;;3.58;1.70;;;;;;;26.08;68.82;92622.72;5080274;28;20059;-81
2023/06/11 09:20:23;;;;;;;4.95;2.40;;;;;;;26.32;66.25;92623.16;5086883;28;20105;-81
2023/06/11 09:22:51;;;;;;;3.55;2.22;;;;;;;26.26;64.55;92623.38;5089208;28;20148;-80
2023/06/11 09:25:18;;;;;;;2.80;1.80;;;;;;;26.24;66.67;92617.66;5067603;28;20124;-81
2023/06/11 09:27:45;;;;;;;4.05;2.17;;;;;;;26.22;66.59;92617.19;5084952;28;20553;-81
2023/06/11 09:30:16;;;;;;;3.15;1.88;;;;;;;25.33;67.10;92603.06;5091098;28;20036;-80
2023/06/11 09:32:45;;;;;;;2.95;1.83;;;;;;;24.62;69.21;92616.41;5083305;28;20048;-80
2023/06/11 09:35:13;;;;;;;3.28;1.88;;;;;;;23.63;70.96;92615.94;5062339;28;20580;-80
2023/06/11 09:37:44;;;;;;;3.67;2.58;;;;;;;23.15;76.09;92602.53;5086760;28;20048;-80
2023/06/11 09:40:15;;;;;;;4.30;2.38;;;;;;;23.46;74.37;92606.19;5091282;28;20044;-81
2023/06/11 09:42:44;;;;;;;4.70;2.50;;;;;;;23.23;74.42;92525.81;5081617;28;20102;-80
2023/06/11 09:45:16;;;;;;;4.00;2.53;;;;;;;23.86;75.92;92606.13;5070987;28;20048;-81
2023/06/11 09:47:44;;;;;;;4.88;2.63;;;;;;;23.23;78.75;92601.81;5091037;28;20541;-80
2023/06/11 09:50:12;;;;;;;4.20;2.47;;;;;;;22.91;81.14;92593.22;5061724;28;20456;-80
2023/06/11 09:52:40;;;;;;;4.10;2.65;;;;;;;23.10;80.97;92592.22;5080211;28;20039;-80
2023/06/11 09:55:09;;;;;;;3.30;2.17;;;;;;;22.35;83.33;92592.75;5082082;28;20090;-79
2023/06/11 09:57:37;;;;;;;3.10;1.85;;;;;;;22.41;87.52;92587.09;5054061;28;20041;-80
2023/06/11 10:00:09;;;;;;;3.78;2.17;;;;;;;21.99;87.35;92594.34;5065599;28;20059;-80
2023/06/11 10:02:39;;;;;;;4.88;1.90;;;;;;;21.96;88.17;92592.31;5083856;28;20059;-80
2023/06/11 10:05:08;;;;;;;3.45;2.15;;;;;;;21.78;80.34;92599.25;5088019;28;20040;-80
2023/06/11 10:07:40;;;;;;;3.88;2.15;;;;;;;21.61;77.04;92590.94;5074292;28;20406;-80
2023/06/11 10:10:10;;;;;;;6.47;3.20;;;;;;;21.38;77.49;92587.47;5078496;28;20500;-79
2023/06/11 10:12:37;;;;;;;7.45;3.55;;;;;;;21.17;77.05;92585.28;5064466;28;20097;-79
2023/06/11 10:15:05;;;;;;;10.90;4.70;;;;;;;21.44;84.96;92586.31;5063439;28;20541;-80
2023/06/11 10:17:32;;;;;;;7.22;3.53;;;;;;;21.36;77.58;92581.78;5067793;28;20147;-80
2023/06/11 10:20:01;;;;;;;4.50;2.70;;;;;;;21.62;78.90;92568.94;5077332;28;20044;-80
2023/06/11 10:22:36;;;;;;;4.72;2.90;;;;;;;22.05;82.73;92577.47;5065955;28;20106;-80
2023/06/11 10:25:04;;;;;;;2.72;1.77;;;;;;;22.28;68.08;92575.59;5090526;28;20052;-80
2023/06/11 10:27:38;;;;;;;3.30;2.00;;;;;;;22.61;70.31;92573.81;5075069;28;20049;-80
2023/06/11 10:30:07;;;;;;;3.80;2.25;;;;;;;22.95;76.60;92562.72;5076571;28;20055;-80
2023/06/11 10:32:33;;;;;;;4.72;2.42;;;;;;;23.18;68.85;92567.88;5071652;28;20044;-82
2023/06/11 10:35:04;;;;;;;3.92;1.85;;;;;;;23.21;66.75;92558.63;5083641;28;20442;-79
2023/06/11 10:37:33;;;;;;;4.22;2.40;;;;;;;23.54;65.85;92570.59;5089976;28;20043;-79
2023/06/11 10:40:00;;;;;;;4.65;2.50;;;;;;;23.98;70.70;92563.50;5071357;28;20098;-79
2023/06/11 10:42:29;;;;;;;5.50;3.00;;;;;;;24.48;72.54;92545.72;5079677;28;20048;-79
2023/06/11 10:44:59;;;;;;;2.78;1.95;;;;;;;24.91;64.87;92556.41;5077429;28;20084;-80
2023/06/11 10:47:28;;;;;;;3.63;2.08;;;;;;;25.49;61.90;92561.19;5072580;28;20047;-81
2023/06/11 10:50:07;;;;;;;4.70;2.55;;;;;;;25.57;58.32;92547.28;5089655;28;20105;-80
2023/06/11 10:52:47;;;;;;;3.47;2.17;;;;;;;26.10;61.49;92553.97;5076347;28;20051;-81
2023/06/11 10:55:14;;;;;;;3.70;2.33;;;;;;;26.14;58.17;92557.50;5061983;28;20493;-80
2023/06/11 10:57:41;;;;;;;5.30;2.22;;;;;;;26.22;58.69;92547.97;5089982;28;20126;-80
2023/06/11 11:00:10;;;;;;;4.25;1.95;;;;;;;26.46;54.52;92543.91;5071434;28;20048;-80
2023/06/11 11:02:38;;;;;;;2.53;1.67;;;;;;;27.19;57.34;92541.69;5073228;28;20047;-80
2023/06/11 11:05:09;;;;;;;3.78;2.10;;;;;;;27.72;57.24;92533.06;5068884;28;20101;-79
2023/06/11 11:07:36;;;;;;;3.97;2.10;;;;;;;27.86;50.83;92522.88;5089910;28;20051;-78
2023/06/11 11:10:04;;;;;;;2.90;1.73;;;;;;;28.17;51.63;92523.31;5088989;28;20044;-79
2023/06/11 11:12:36;;;;;;;3.35;2.15;;;;;;;28.66;53.34;92521.53;5072106;28;20818;-78
2023/06/11 11:15:03;;;;;;;2.88;1.80;;;;;;;29.09;53.55;92521.78;5062476;28;20694;-79
2023/06/11 11:17:30;;;;;;;3.80;2.03;;;;;;;29.38;52.38;92522.38;5067677;28;20053;-78
2023/06/11 11:19:57;;;;;;;3.75;2.40;;;;;;;29.65;51.08;92513.88;5079634;28;20052;-78
2023/06/11 11:22:29;;;;;;;3.63;2.20;;;;;;;29.89;50.44;92518.13;5078786;28;20077;-78
2023/06/11 11:24:59;;;;;;;3.15;2.00;;;;;;;30.17;49.26;92525.13;5068366;28;20048;-78
2023/06/11 11:27:26;;;;;;;3.03;2.10;;;;;;;30.46;46.42;92517.69;5084780;28;20048;-78
2023/06/11 11:29:56;;;;;;;3.13;1.98;;;;;;;30.71;47.75;92511.28;5069012;28;20113;-78